Terminal Aerodrome Forecast
Issued by NWS Sioux Falls, SD

Home | Current Version | Previous Version | Text Only | Print | Product List | Glossary On
Versions: 1 2 3 4 5 6 7 8 9 10 11 12
638
FTUS43 KFSD 231120
TAFHON
TAF
KHON 231120Z 2312/2412 31015G23KT P6SM BKN050
     FM231300 32016G24KT P6SM BKN030
     FM231600 32018G27KT P6SM BKN040
     FM240100 33013KT P6SM FEW070
     FM240400 32005KT P6SM SKC=

USA.gov is the U.S. government's official web portal to all federal, state and local government web resources and services.